Skip to main content.
Our real time weather data display below is updated continuously via our 24/7 live data feed.
 TIME   TEMPERATURE   WINDSPEED   DIRECTION   HUMIDITY   BAROMETER   RAINFALL 
7:00 22.0°C (71.6°F) 18.5 kmh (11.5 mph) NW 83% 1011.9hPa (29.88 inHg) 0.0mm (0.00 in.)
6:00 22.0°C (71.6 °F) 16.7 kmh (10.4 mph) NW 78% 1011.9hPa (29.88 inHg) 0.0mm (0.00 in.)
5:00 22.0°C (71.6 °F) 20.4 kmh (12.7 mph) NW 78% 1011.9hPa (29.88 inHg) 0.0mm (0.00 in.)
4:00 22.0°C (71.6 °F) 24.1 kmh (15.0 mph) NW 78% 1011.9hPa (29.88 inHg) 0.0mm (0.00 in.)
3:00 22.0°C (71.6 °F) 27.8 kmh (17.3 mph) NW 78% 1011.9hPa (29.88 inHg) 0.0mm (0.00 in.)
2:00 22.0°C (71.6 °F) 31.5 kmh (19.6 mph) NW 78% 1012.9hPa (29.91 inHg) 0.0mm (0.00 in.)
1:00 22.0°C (71.6 °F) 35.2 kmh (21.9 mph) NW 83% 1012.9hPa (29.91 inHg) 0.0mm (0.00 in.)
0:00 23.0°C (73.4 °F) 38.9 kmh (24.2 mph) NW 78% 1012.9hPa (29.91 inHg) 0.0mm (0.00 in.)
23:00 23.0°C (73.4 °F) 42.6 kmh (26.5 mph) NW 78% 1012.9hPa (29.91 inHg) 0.0mm (0.00 in.)
22:00 23.0°C (73.4 °F) 38.9 kmh (24.2 mph) WNW 78% 1012.9hPa (29.91 inHg) 0.0mm (0.00 in.)
21:00 23.0°C (73.4 °F) 38.9 kmh (24.2 mph) NW 78% 1012.9hPa (29.91 inHg) 0.0mm (0.00 in.)
19:53 25.0°C (77.0 °F) 33.3 kmh (20.7 mph) NW 73% 1011.9hPa (29.88 inHg) 0.0mm (0.00 in.)
18:53 26.0°C (78.8 °F) 38.9 kmh (24.2 mph) NW 73% 1011.9hPa (29.88 inHg) 0.0mm (0.00 in.)
17:53 28.0°C (82.4 °F) 35.2 kmh (21.9 mph) NW 65% 1012.9hPa (29.91 inHg) 0.0mm (0.00 in.)
16:53 29.0°C (84.2 °F) 29.6 kmh (18.4 mph) NW 58% 1012.9hPa (29.91 inHg) 0.0mm (0.00 in.)
15:53 29.0°C (84.2 °F) 31.5 kmh (19.6 mph) WNW 62% 1012.9hPa (29.91 inHg) 0.0mm (0.00 in.)
14:53 29.0°C (84.2 °F) 29.6 kmh (18.4 mph) NW 62% 1013.9hPa (29.94 inHg) 0.0mm (0.00 in.)
13:53 31.0°C (87.8 °F) 24.1 kmh (15.0 mph) NW 52% 1013.9hPa (29.94 inHg) 0.0mm (0.00 in.)
12:53 31.0°C (87.8 °F) 22.2 kmh (13.8 mph) NW 47% 1013.9hPa (29.94 inHg) 0.0mm (0.00 in.)
11:53 30.0°C (86.0 °F) 22.2 kmh (13.8 mph) NW 58% 1013.9hPa (29.94 inHg) 0.0mm (0.00 in.)
10:53 30.0°C (86.0 °F) 20.4 kmh (12.7 mph) NW 58% 1013.9hPa (29.94 inHg) 0.0mm (0.00 in.)
9:53 29.0°C (84.2 °F) 11.1 kmh (6.9 mph) NW 58% 1012.9hPa (29.91 inHg) 0.0mm (0.00 in.)
8:53 27.0°C (80.6 °F) 13.0 kmh (8.1 mph) NW 69% 1012.9hPa (29.91 inHg) 0.0mm (0.00 in.)
7:53 24.0°C (75.2 °F) 5.6 kmh (3.5 mph) W 88% 1012.9hPa (29.91 inHg) 0.0mm (0.00 in.)